createdAt,value
2022-09-25T00:00:36.659Z,5.82
2022-09-25T00:01:58.129Z,6.19
2022-09-25T00:03:19.714Z,5.41
2022-09-25T00:04:41.061Z,5.76
2022-09-25T00:07:20.192Z,5.37
2022-09-25T00:08:41.850Z,5.67
2022-09-25T00:10:03.782Z,6.48
2022-09-25T00:11:27.149Z,6.32
2022-09-25T00:12:48.641Z,6.82
2022-09-25T00:14:10.338Z,7.91
2022-09-25T00:15:34.440Z,8.34
2022-09-25T00:16:55.867Z,6.96
2022-09-25T00:18:17.570Z,7.02
2022-09-25T00:19:38.806Z,6.92
2022-09-25T00:21:00.707Z,6.49
2022-09-25T00:22:22.849Z,5.83
2022-09-25T00:23:44.329Z,4.49
2022-09-25T00:25:05.915Z,6.18
2022-09-25T00:26:27.963Z,5.61
2022-09-25T00:27:50.954Z,5.36
2022-09-25T00:29:17.341Z,5.19
2022-09-25T00:30:41.413Z,5.37
2022-09-25T00:32:03.535Z,5.14
2022-09-25T00:33:25.044Z,5.34
2022-09-25T00:34:46.347Z,4.52
2022-09-25T00:36:09.278Z,5.17
2022-09-25T00:37:32.716Z,5.62
2022-09-25T00:38:53.985Z,5.56
2022-09-25T00:40:15.935Z,11.75
2022-09-25T00:41:37.169Z,14.54
2022-09-25T00:42:58.628Z,12.42
2022-09-25T00:44:42.983Z,12.93
2022-09-25T00:47:21.860Z,17.16
2022-09-25T00:49:02.554Z,14.43
2022-09-25T00:50:45.407Z,15.91
2022-09-25T00:52:09.604Z,15.04
2022-09-25T00:53:33.596Z,16.30
2022-09-25T00:54:57.779Z,16.34
2022-09-25T00:56:19.113Z,16.16
2022-09-25T00:57:40.806Z,12.59
2022-09-25T00:59:02.488Z,17.39
2022-09-25T01:00:23.949Z,19.32
2022-09-25T01:01:45.784Z,30.85
2022-09-25T01:03:07.106Z,28.86
2022-09-25T01:04:29.114Z,26.49
2022-09-25T01:05:50.637Z,22.76
2022-09-25T01:07:12.200Z,24.05
2022-09-25T01:09:52.858Z,12.82
2022-09-25T01:11:14.182Z,13.35
2022-09-25T01:12:36.562Z,9.81
2022-09-25T01:13:59.687Z,10.30
2022-09-25T01:16:52.124Z,8.83
2022-09-25T01:18:17.419Z,5.63
2022-09-25T01:19:42.427Z,6.26
2022-09-25T01:21:26.900Z,6.04
2022-09-25T01:23:11.847Z,5.15
2022-09-25T01:24:53.075Z,4.64
2022-09-25T01:26:19.093Z,4.26
2022-09-25T01:27:47.044Z,4.51
2022-09-25T01:29:16.220Z,4.79
2022-09-25T01:30:41.955Z,4.38
2022-09-25T01:33:46.309Z,3.46
2022-09-25T01:36:50.035Z,4.54
2022-09-25T01:38:17.764Z,4.92
2022-09-25T01:39:42.662Z,4.71
2022-09-25T01:41:13.482Z,5.47
2022-09-25T01:42:38.681Z,5.24
2022-09-25T01:44:15.131Z,5.06
2022-09-25T01:46:57.969Z,4.83
2022-09-25T01:48:21.830Z,4.53
2022-09-25T01:49:50.781Z,4.59
2022-09-25T01:52:45.405Z,5.69
2022-09-25T01:54:09.112Z,6.89
2022-09-25T01:56:51.925Z,15.31
2022-09-25T01:58:31.633Z,21.19
2022-09-25T02:01:22.923Z,12.06
2022-09-25T02:04:10.511Z,47.43
2022-09-25T02:05:41.373Z,19.17
2022-09-25T02:07:03.643Z,7.04
2022-09-25T02:09:51.218Z,15.61
2022-09-25T02:11:12.759Z,8.37
2022-09-25T02:12:36.958Z,7.02
2022-09-25T02:14:03.084Z,4.99
2022-09-25T02:15:33.970Z,5.07
2022-09-25T02:16:55.824Z,4.42
2022-09-25T02:18:17.319Z,4.56
2022-09-25T02:19:38.534Z,4.24
2022-09-25T02:21:29.490Z,4.94
2022-09-25T02:22:51.327Z,4.82
2022-09-25T02:24:30.598Z,4.61
2022-09-25T02:25:58.447Z,4.59
2022-09-25T02:27:20.128Z,4.73
2022-09-25T02:28:42.390Z,4.49
2022-09-25T02:30:04.521Z,4.14
2022-09-25T02:32:38.484Z,4.53
2022-09-25T02:33:59.980Z,4.48
2022-09-25T02:35:21.387Z,4.17
2022-09-25T02:36:43.137Z,4.14
2022-09-25T02:38:04.951Z,4.66
2022-09-25T02:39:28.836Z,4.89
2022-09-25T02:42:37.342Z,6.18
2022-09-25T02:44:14.543Z,5.81
2022-09-25T02:47:22.796Z,6.67
2022-09-25T02:48:53.332Z,5.89
2022-09-25T02:50:25.028Z,5.63
2022-09-25T02:51:58.818Z,5.27
2022-09-25T02:53:43.728Z,4.89
2022-09-25T03:09:15.187Z,15.97
2022-09-25T03:11:52.659Z,18.19
2022-09-25T03:13:18.571Z,11.93
2022-09-25T03:14:40.026Z,11.23
2022-09-25T03:16:10.401Z,11.56
2022-09-25T03:17:32.030Z,10.79
2022-09-25T03:20:03.295Z,6.67
2022-09-25T03:21:24.569Z,4.87
2022-09-25T03:22:46.156Z,5.69
2022-09-25T03:25:17.869Z,10.44
2022-09-25T03:26:39.941Z,6.81
2022-09-25T03:28:01.563Z,19.21
2022-09-25T03:29:22.628Z,21.71
2022-09-25T03:30:43.901Z,18.28
2022-09-25T03:32:05.065Z,15.49
2022-09-25T03:33:27.900Z,20.24
2022-09-25T03:34:48.951Z,31.66
2022-09-25T03:36:14.960Z,23.42
2022-09-25T03:37:36.279Z,18.06
2022-09-25T03:38:57.911Z,14.99
2022-09-25T03:40:19.347Z,22.81
2022-09-25T03:41:40.545Z,22.17
2022-09-25T03:44:23.061Z,5.96
2022-09-25T03:45:44.105Z,5.42
2022-09-25T03:47:05.691Z,5.53
2022-09-25T03:48:27.239Z,4.95
2022-09-25T03:49:48.427Z,5.41
2022-09-25T03:51:10.235Z,5.33
2022-09-25T03:52:31.482Z,5.14
2022-09-25T03:53:53.194Z,5.21
2022-09-25T03:55:14.920Z,5.63
2022-09-25T03:56:36.773Z,4.94
2022-09-25T03:57:58.311Z,4.93
2022-09-25T03:59:19.496Z,5.30
2022-09-25T04:00:40.947Z,4.68
2022-09-25T04:02:02.679Z,4.74
2022-09-25T04:03:24.699Z,6.20
2022-09-25T04:04:46.960Z,7.85
2022-09-25T04:06:09.072Z,20.11
2022-09-25T04:07:30.377Z,15.73
2022-09-25T04:08:51.506Z,16.33
2022-09-25T04:10:15.017Z,15.46
2022-09-25T04:11:36.351Z,13.92
2022-09-25T04:12:57.881Z,11.21
2022-09-25T04:14:19.040Z,11.36
2022-09-25T04:15:40.878Z,10.01
2022-09-25T04:17:02.320Z,9.93
2022-09-25T04:18:24.431Z,9.41
2022-09-25T04:19:45.876Z,9.56
2022-09-25T04:21:08.631Z,8.06
2022-09-25T04:22:29.997Z,6.19
2022-09-25T04:23:51.572Z,12.34
2022-09-25T04:25:13.432Z,10.41
2022-09-25T04:26:35.043Z,11.51
2022-09-25T04:27:56.464Z,10.29
2022-09-25T04:29:17.569Z,10.41
2022-09-25T04:30:39.170Z,9.31
2022-09-25T04:32:01.427Z,6.52
2022-09-25T04:33:22.815Z,7.98
2022-09-25T04:34:44.091Z,8.15
2022-09-25T04:36:05.565Z,6.97
2022-09-25T04:37:27.022Z,8.42
2022-09-25T04:38:48.346Z,5.84
2022-09-25T04:40:10.250Z,6.62
2022-09-25T04:41:31.255Z,7.23
2022-09-25T04:44:07.153Z,17.52
2022-09-25T04:45:29.323Z,23.49
2022-09-25T04:46:50.812Z,19.98
2022-09-25T04:48:12.432Z,21.37
2022-09-25T04:49:34.393Z,23.06
2022-09-25T04:50:57.033Z,10.90
2022-09-25T04:52:18.555Z,5.67
2022-09-25T04:53:40.454Z,5.34
2022-09-25T04:55:01.653Z,6.72
2022-09-25T04:56:22.742Z,6.71
2022-09-25T04:57:58.470Z,6.57
2022-09-25T05:00:29.876Z,13.68
2022-09-25T05:01:54.335Z,12.29
2022-09-25T05:03:16.470Z,11.02
2022-09-25T05:04:38.183Z,12.68
2022-09-25T05:05:59.293Z,14.32
2022-09-25T05:07:20.729Z,7.69
2022-09-25T05:08:42.398Z,10.84
2022-09-25T05:10:04.340Z,9.53
2022-09-25T05:12:35.323Z,7.91
2022-09-25T05:13:57.057Z,10.83
2022-09-25T05:15:18.798Z,30.38
2022-09-25T05:16:41.527Z,23.30
2022-09-25T05:18:07.386Z,18.03
2022-09-25T05:19:28.629Z,29.40
2022-09-25T05:20:50.970Z,30.72
2022-09-25T05:22:12.440Z,12.16
2022-09-25T05:23:34.384Z,10.82
2022-09-25T05:24:59.028Z,11.71
2022-09-25T05:26:19.173Z,10.49
2022-09-25T05:27:40.244Z,11.32
2022-09-25T05:29:01.788Z,9.58
2022-09-25T05:30:24.099Z,9.12
2022-09-25T05:31:46.519Z,9.28
2022-09-25T05:33:08.164Z,7.27
2022-09-25T05:34:29.684Z,8.18
2022-09-25T05:35:51.346Z,7.81
2022-09-25T05:37:12.908Z,10.85
2022-09-25T05:38:35.435Z,9.33
2022-09-25T05:39:57.067Z,7.33
2022-09-25T05:41:18.479Z,7.54
2022-09-25T05:42:40.647Z,7.69
2022-09-25T05:44:02.013Z,7.34
2022-09-25T05:45:23.338Z,7.60
2022-09-25T05:46:44.599Z,8.22
2022-09-25T05:48:06.848Z,6.48
2022-09-25T05:49:28.146Z,6.88
2022-09-25T05:50:53.407Z,6.83
2022-09-25T05:52:14.931Z,6.57
2022-09-25T05:53:36.569Z,6.56
2022-09-25T05:54:58.096Z,6.76
2022-09-25T05:56:20.912Z,7.98
2022-09-25T05:57:42.354Z,5.83
2022-09-25T05:59:04.302Z,14.49
2022-09-25T06:00:26.649Z,16.83
2022-09-25T06:01:48.143Z,9.76
2022-09-25T06:03:09.526Z,11.38
2022-09-25T06:04:30.977Z,7.67
2022-09-25T06:05:54.591Z,7.13
2022-09-25T06:07:16.012Z,7.81
2022-09-25T06:08:38.167Z,9.31
2022-09-25T06:09:59.901Z,9.87
2022-09-25T06:11:23.383Z,8.08
2022-09-25T06:12:44.865Z,7.14
2022-09-25T06:14:07.196Z,8.18
2022-09-25T06:15:30.576Z,9.56
2022-09-25T06:16:53.168Z,8.36
2022-09-25T06:18:14.656Z,7.58
2022-09-25T06:19:35.850Z,7.58
2022-09-25T06:21:01.752Z,6.84
2022-09-25T06:22:22.943Z,6.13
2022-09-25T06:23:44.280Z,6.27
2022-09-25T06:25:06.982Z,6.77
2022-09-25T06:26:28.587Z,5.99
2022-09-25T06:27:53.284Z,8.29
2022-09-25T06:29:14.678Z,11.98
2022-09-25T06:30:35.949Z,15.28
2022-09-25T06:31:57.016Z,17.39
2022-09-25T06:33:18.647Z,12.91
2022-09-25T06:34:42.834Z,7.21
2022-09-25T06:36:05.600Z,7.49
2022-09-25T06:37:28.067Z,6.23
2022-09-25T06:40:05.678Z,6.55
2022-09-25T06:41:27.028Z,7.04
2022-09-25T06:42:52.377Z,6.23
2022-09-25T06:44:13.991Z,6.09
2022-09-25T06:45:35.508Z,6.06
2022-09-25T06:46:58.182Z,6.08
2022-09-25T06:48:19.455Z,6.11
2022-09-25T06:49:40.996Z,6.07
2022-09-25T06:51:02.955Z,6.62
2022-09-25T06:52:25.988Z,6.83
2022-09-25T06:53:47.279Z,7.44
2022-09-25T06:55:08.891Z,7.71
2022-09-25T06:56:30.126Z,7.15
2022-09-25T06:57:51.608Z,6.12
2022-09-25T06:59:13.289Z,5.97
2022-09-25T07:00:35.188Z,5.96
2022-09-25T07:01:58.847Z,6.18
2022-09-25T07:03:20.213Z,6.14
2022-09-25T07:04:42.461Z,6.52
2022-09-25T07:06:04.723Z,6.36
2022-09-25T07:07:25.939Z,5.49
2022-09-25T07:08:47.978Z,7.06
2022-09-25T07:10:09.317Z,7.56
2022-09-25T07:11:31.099Z,6.56
2022-09-25T07:12:53.500Z,7.32
2022-09-25T07:14:15.814Z,7.47
2022-09-25T07:15:37.422Z,6.81
2022-09-25T07:16:59.151Z,6.96
2022-09-25T07:20:06.725Z,5.48
2022-09-25T07:21:27.812Z,5.74
2022-09-25T07:22:50.523Z,6.08
2022-09-25T07:24:12.188Z,6.62
2022-09-25T07:25:33.297Z,8.84
2022-09-25T07:26:54.840Z,8.52
2022-09-25T07:28:16.296Z,9.49
2022-09-25T07:29:37.819Z,6.93
2022-09-25T07:30:58.991Z,9.13
2022-09-25T07:32:20.268Z,14.54
2022-09-25T07:33:41.623Z,13.77
2022-09-25T07:35:03.476Z,6.82
2022-09-25T07:36:24.653Z,6.73
2022-09-25T07:37:46.061Z,9.25
2022-09-25T07:39:07.412Z,8.81
2022-09-25T07:40:30.809Z,6.79
2022-09-25T07:41:54.020Z,6.44
2022-09-25T07:43:17.559Z,8.29
2022-09-25T07:44:39.526Z,6.44
2022-09-25T07:46:02.176Z,6.44
2022-09-25T07:47:23.710Z,6.26
2022-09-25T07:48:49.844Z,6.14
2022-09-25T07:50:15.397Z,5.69
2022-09-25T07:52:56.332Z,6.76
2022-09-25T07:54:17.728Z,5.45
2022-09-25T07:55:39.162Z,6.14
2022-09-25T07:57:00.700Z,7.02
2022-09-25T07:58:21.820Z,6.56
2022-09-25T07:59:43.131Z,8.06
2022-09-25T08:01:06.394Z,7.64
2022-09-25T08:02:27.988Z,6.45
2022-09-25T08:03:49.272Z,6.10
2022-09-25T08:05:11.355Z,5.48
2022-09-25T08:06:34.880Z,6.63
2022-09-25T08:07:56.162Z,5.93
2022-09-25T08:09:17.253Z,7.99
2022-09-25T08:10:38.700Z,7.32
2022-09-25T08:11:59.864Z,6.11
2022-09-25T08:13:21.273Z,6.58
2022-09-25T08:14:42.855Z,6.66
2022-09-25T08:16:05.211Z,6.77
2022-09-25T08:17:27.585Z,6.37
2022-09-25T08:18:49.300Z,8.01
2022-09-25T08:20:11.175Z,9.19
2022-09-25T08:21:33.331Z,8.16
2022-09-25T08:22:54.742Z,7.07
2022-09-25T08:24:15.891Z,7.21
2022-09-25T08:25:37.560Z,7.97
2022-09-25T08:26:58.694Z,5.79
2022-09-25T08:28:20.301Z,5.24
2022-09-25T08:29:42.103Z,5.23
2022-09-25T08:31:03.600Z,6.32
2022-09-25T08:32:24.975Z,5.91
2022-09-25T08:33:47.046Z,4.81
2022-09-25T08:35:08.805Z,5.21
2022-09-25T08:36:30.159Z,4.71
2022-09-25T08:37:51.749Z,4.91
2022-09-25T08:39:15.906Z,4.87
2022-09-25T08:40:43.002Z,4.89
2022-09-25T08:42:03.370Z,4.67
2022-09-25T08:43:25.464Z,4.63
2022-09-25T08:45:08.974Z,4.78
2022-09-25T08:46:22.121Z,4.96
2022-09-25T08:47:43.340Z,5.08
2022-09-25T08:49:04.477Z,8.21
2022-09-25T08:50:26.957Z,5.08
2022-09-25T08:51:49.383Z,5.12
2022-09-25T08:53:24.977Z,5.67
2022-09-25T08:54:46.454Z,6.59
2022-09-25T08:56:09.453Z,8.22
2022-09-25T08:57:36.531Z,4.91
2022-09-25T08:59:11.692Z,6.59
2022-09-25T09:00:35.609Z,5.24
2022-09-25T09:02:01.595Z,5.48
2022-09-25T09:04:47.141Z,5.13
2022-09-25T09:06:12.279Z,5.19
2022-09-25T09:07:38.490Z,5.73
2022-09-25T09:10:29.708Z,5.77
2022-09-25T09:11:54.233Z,4.87
2022-09-25T09:14:37.324Z,5.04
2022-09-25T09:16:02.441Z,4.50
2022-09-25T09:17:25.972Z,6.64
2022-09-25T09:18:49.391Z,5.37
2022-09-25T09:21:59.713Z,4.44
2022-09-25T09:23:24.420Z,3.96
2022-09-25T09:24:59.367Z,4.17
2022-09-25T09:26:24.856Z,3.73
2022-09-25T09:29:51.620Z,4.39
2022-09-25T09:33:09.855Z,4.23
2022-09-25T09:35:05.963Z,4.64
2022-09-25T09:36:36.589Z,4.08
2022-09-25T09:38:20.559Z,4.33
2022-09-25T09:40:05.022Z,4.81
2022-09-25T09:43:58.060Z,3.96
2022-09-25T09:45:37.652Z,4.04
2022-09-25T09:47:37.490Z,3.89
2022-09-25T09:49:20.717Z,4.29
2022-09-25T09:50:53.352Z,3.56
2022-09-25T09:53:44.384Z,3.23
2022-09-25T09:55:25.334Z,3.23
2022-09-25T09:56:47.687Z,3.32
2022-09-25T09:58:21.261Z,3.37
2022-09-25T10:00:05.575Z,3.28
2022-09-25T10:01:40.830Z,3.23
2022-09-25T10:04:23.676Z,3.11
2022-09-25T10:05:46.869Z,3.24
2022-09-25T10:07:11.128Z,2.91
2022-09-25T10:08:32.734Z,3.18
2022-09-25T10:09:54.106Z,2.87
2022-09-25T10:12:33.184Z,2.99
2022-09-25T10:13:55.340Z,3.04
2022-09-25T10:15:26.039Z,3.12
2022-09-25T10:16:48.987Z,3.17
2022-09-25T10:18:10.403Z,2.95
2022-09-25T10:20:55.307Z,3.18
2022-09-25T10:22:19.146Z,3.11
2022-09-25T10:23:56.572Z,2.74
2022-09-25T10:25:35.427Z,2.61
2022-09-25T10:26:56.906Z,2.52
2022-09-25T10:29:33.014Z,3.83
2022-09-25T10:30:55.633Z,3.57
2022-09-25T10:33:38.854Z,3.41
2022-09-25T10:35:00.224Z,2.85
2022-09-25T10:38:02.077Z,2.78
2022-09-25T10:39:44.901Z,6.61
2022-09-25T10:41:10.277Z,3.34
2022-09-25T10:42:37.779Z,2.82
2022-09-25T10:44:00.952Z,2.39
2022-09-25T10:45:31.634Z,2.18
2022-09-25T10:46:53.075Z,2.33
2022-09-25T10:48:26.744Z,1.99
2022-09-25T10:49:49.000Z,2.99
2022-09-25T10:51:10.575Z,2.52
2022-09-25T10:54:12.176Z,2.87
2022-09-25T10:55:35.935Z,2.10
2022-09-25T10:56:57.459Z,2.07
2022-09-25T10:59:35.709Z,2.30
2022-09-25T11:00:58.660Z,2.03
2022-09-25T11:03:47.982Z,2.29
2022-09-25T11:05:18.636Z,2.06
2022-09-25T11:06:51.634Z,1.99
2022-09-25T11:08:12.953Z,2.12
2022-09-25T11:09:35.156Z,2.29
2022-09-25T11:11:00.077Z,2.34
2022-09-25T11:12:23.318Z,2.32
2022-09-25T11:13:50.763Z,2.22
2022-09-25T11:15:15.781Z,2.33
2022-09-25T11:16:49.503Z,2.37
2022-09-25T11:18:15.001Z,2.47
2022-09-25T11:19:37.448Z,2.22
2022-09-25T11:21:02.290Z,2.78
2022-09-25T11:24:03.626Z,2.03
2022-09-25T11:27:27.823Z,1.92
2022-09-25T11:28:56.797Z,2.11
2022-09-25T11:30:21.053Z,2.27
2022-09-25T11:33:29.045Z,2.19
2022-09-25T11:35:03.493Z,2.31
2022-09-25T11:36:28.199Z,2.63
2022-09-25T11:37:56.180Z,2.06
2022-09-25T11:39:26.715Z,1.94
2022-09-25T11:41:00.806Z,2.20
2022-09-25T11:42:32.236Z,2.29
2022-09-25T11:44:00.332Z,2.12
2022-09-25T11:47:21.496Z,2.02
2022-09-25T11:48:55.632Z,2.24
2022-09-25T11:50:18.307Z,1.99
2022-09-25T11:51:55.213Z,2.24
2022-09-25T11:53:20.291Z,2.38
2022-09-25T11:55:10.221Z,2.46
2022-09-25T11:56:35.382Z,2.26
2022-09-25T11:58:25.148Z,2.67
2022-09-25T11:59:59.058Z,2.15
2022-09-25T12:03:26.062Z,2.42
2022-09-25T12:06:51.121Z,2.57
2022-09-25T12:08:38.924Z,3.19
2022-09-25T12:11:43.279Z,2.64
2022-09-25T12:13:11.627Z,2.67
2022-09-25T12:14:42.746Z,2.69
2022-09-25T12:16:20.133Z,2.71
2022-09-25T12:19:13.204Z,3.03
2022-09-25T12:20:53.917Z,2.57
2022-09-25T12:22:21.936Z,2.61
2022-09-25T12:24:05.843Z,2.11
2022-09-25T12:27:16.808Z,2.97
2022-09-25T12:28:50.649Z,2.01
2022-09-25T12:30:18.171Z,2.28
2022-09-25T12:31:59.689Z,2.26
2022-09-25T12:33:41.577Z,2.11
2022-09-25T12:35:06.925Z,2.27
2022-09-25T12:36:39.404Z,2.23
2022-09-25T12:38:07.229Z,2.24
2022-09-25T12:39:34.151Z,2.32
2022-09-25T12:41:05.416Z,2.55
2022-09-25T12:43:04.023Z,2.81
2022-09-25T12:44:56.631Z,2.45
2022-09-25T12:46:31.581Z,2.40
2022-09-25T12:48:08.731Z,3.82
2022-09-25T12:49:36.470Z,3.39
2022-09-25T12:51:11.000Z,3.23
2022-09-25T12:53:59.498Z,2.27
2022-09-25T12:55:29.742Z,2.72
2022-09-25T12:57:11.808Z,2.38
2022-09-25T12:58:45.461Z,2.32
2022-09-25T13:00:23.518Z,2.15
2022-09-25T13:01:54.551Z,2.74
2022-09-25T13:03:22.678Z,2.32
2022-09-25T13:05:19.374Z,2.33
2022-09-25T13:07:00.826Z,2.47
2022-09-25T13:08:27.343Z,2.18
2022-09-25T13:09:48.890Z,2.18
2022-09-25T13:11:14.119Z,2.12
2022-09-25T13:12:36.449Z,2.25
2022-09-25T13:13:58.089Z,2.05
2022-09-25T13:15:21.801Z,2.68
2022-09-25T13:16:43.236Z,2.33
2022-09-25T13:18:05.616Z,2.27
2022-09-25T13:19:28.949Z,2.32
2022-09-25T13:20:59.807Z,2.34
2022-09-25T13:22:22.507Z,2.37
2022-09-25T13:23:43.981Z,2.55
2022-09-25T13:26:25.148Z,2.09
2022-09-25T13:27:46.584Z,2.46
2022-09-25T13:30:28.001Z,2.26
2022-09-25T13:31:49.799Z,2.27
2022-09-25T13:33:15.737Z,2.09
2022-09-25T13:34:38.360Z,1.99
2022-09-25T13:37:30.618Z,2.25
2022-09-25T13:38:58.133Z,2.14
2022-09-25T13:41:35.724Z,2.20
2022-09-25T13:43:17.418Z,2.28
2022-09-25T13:44:45.177Z,2.42
2022-09-25T13:46:22.697Z,2.10
2022-09-25T13:49:32.451Z,2.39
2022-09-25T13:50:53.449Z,2.29
2022-09-25T13:52:41.425Z,2.30
2022-09-25T13:54:15.515Z,2.25
2022-09-25T13:55:40.782Z,2.48
2022-09-25T13:57:02.207Z,2.51
2022-09-25T13:58:25.777Z,2.43
2022-09-25T14:00:59.477Z,2.73
2022-09-25T14:03:48.731Z,3.23
2022-09-25T14:05:15.649Z,2.84
2022-09-25T14:06:39.205Z,2.65
2022-09-25T14:08:13.722Z,2.87
2022-09-25T14:09:35.107Z,2.36
2022-09-25T14:10:57.927Z,2.54
2022-09-25T14:12:34.171Z,2.33
2022-09-25T14:13:55.546Z,2.50
2022-09-25T14:15:22.521Z,2.69
2022-09-25T14:16:50.698Z,2.54
2022-09-25T14:18:18.536Z,3.12
2022-09-25T14:19:41.481Z,2.66
2022-09-25T14:21:03.164Z,3.33
2022-09-25T14:22:37.334Z,2.80
2022-09-25T14:25:27.099Z,3.24
2022-09-25T14:26:50.937Z,2.36
2022-09-25T14:28:23.495Z,2.79
2022-09-25T14:29:47.558Z,2.43
2022-09-25T14:31:32.427Z,2.52
2022-09-25T14:33:15.588Z,2.53
2022-09-25T14:36:34.488Z,2.51
2022-09-25T14:38:32.689Z,3.01
2022-09-25T14:40:03.635Z,3.41
2022-09-25T14:41:52.755Z,3.82
2022-09-25T14:43:24.095Z,2.77
2022-09-25T14:45:01.351Z,2.66
2022-09-25T14:46:22.728Z,3.18
2022-09-25T14:47:44.571Z,3.12
2022-09-25T14:49:27.119Z,2.63
2022-09-25T14:52:13.650Z,3.65
2022-09-25T14:53:41.595Z,2.73
2022-09-25T14:55:05.382Z,3.25
2022-09-25T14:56:27.220Z,3.19
2022-09-25T14:57:48.295Z,3.03
2022-09-25T14:59:12.425Z,2.74
2022-09-25T15:01:46.393Z,3.04
2022-09-25T15:03:08.499Z,3.04
2022-09-25T15:04:31.733Z,3.03
2022-09-25T15:05:53.367Z,3.01
2022-09-25T15:07:16.217Z,2.92
2022-09-25T15:08:40.815Z,3.19
2022-09-25T15:10:07.544Z,3.39
2022-09-25T15:12:51.580Z,3.64
2022-09-25T15:14:16.919Z,3.04
2022-09-25T15:15:38.183Z,3.13
2022-09-25T15:16:59.273Z,3.51
2022-09-25T15:18:22.449Z,3.52
2022-09-25T15:19:43.727Z,3.39
2022-09-25T15:21:07.751Z,3.53
2022-09-25T15:22:32.587Z,3.82
2022-09-25T15:23:57.122Z,3.58
2022-09-25T15:25:23.612Z,3.99
2022-09-25T15:28:04.771Z,4.37
2022-09-25T15:29:26.979Z,4.49
2022-09-25T15:30:59.626Z,4.90
2022-09-25T15:32:24.359Z,4.63
2022-09-25T15:33:47.639Z,4.21
2022-09-25T15:35:23.565Z,4.49
2022-09-25T15:36:47.896Z,4.80
2022-09-25T15:38:13.228Z,4.32
2022-09-25T15:39:38.544Z,3.76
2022-09-25T15:40:59.780Z,3.85
2022-09-25T15:42:22.386Z,4.09
2022-09-25T15:43:48.051Z,4.46
2022-09-25T15:45:13.257Z,4.64
2022-09-25T15:47:54.868Z,6.17
2022-09-25T15:49:29.016Z,6.66
2022-09-25T15:50:52.004Z,7.52
2022-09-25T15:52:24.822Z,5.84
2022-09-25T15:55:12.079Z,4.81
2022-09-25T15:56:39.996Z,5.94
2022-09-25T15:58:07.225Z,5.03
2022-09-25T15:59:40.252Z,4.83
2022-09-25T16:01:02.045Z,4.62
2022-09-25T16:02:26.716Z,5.79
2022-09-25T16:03:50.726Z,5.16
2022-09-25T16:05:13.877Z,4.87
2022-09-25T16:08:14.834Z,5.84
2022-09-25T16:09:37.126Z,5.96
2022-09-25T16:12:41.342Z,16.76
2022-09-25T16:15:30.969Z,6.52
2022-09-25T16:16:52.296Z,8.27
2022-09-25T16:18:22.998Z,9.66
2022-09-25T16:19:44.660Z,7.24
2022-09-25T16:21:32.180Z,7.85
2022-09-25T16:22:54.678Z,7.04
2022-09-25T16:25:36.576Z,5.73
2022-09-25T16:27:01.770Z,5.67
2022-09-25T16:28:28.106Z,6.04
2022-09-25T16:29:49.524Z,5.60
2022-09-25T16:31:11.021Z,6.14
2022-09-25T16:32:33.542Z,5.56
2022-09-25T16:33:54.831Z,5.97
2022-09-25T16:35:25.848Z,7.07
2022-09-25T16:36:47.310Z,8.61
2022-09-25T16:40:52.613Z,8.88
2022-09-25T16:43:38.495Z,8.48
2022-09-25T16:45:23.247Z,7.26
2022-09-25T16:48:36.434Z,5.81
2022-09-25T16:49:57.839Z,8.44
2022-09-25T16:51:20.855Z,7.65
2022-09-25T16:52:41.989Z,9.42
2022-09-25T16:54:03.112Z,8.68
2022-09-25T16:55:25.757Z,8.44
2022-09-25T16:56:47.554Z,7.04
2022-09-25T16:58:08.928Z,7.71
2022-09-25T16:59:30.328Z,7.69
2022-09-25T17:00:51.806Z,7.93
2022-09-25T17:02:22.835Z,8.42
2022-09-25T17:03:44.771Z,7.57
2022-09-25T17:05:17.069Z,7.92
2022-09-25T17:06:38.361Z,8.48
2022-09-25T17:08:00.744Z,8.38
2022-09-25T17:09:22.082Z,9.18
2022-09-25T17:10:44.047Z,8.32
2022-09-25T17:12:08.298Z,7.91
2022-09-25T17:13:29.438Z,9.79
2022-09-25T17:14:52.731Z,8.51
2022-09-25T17:16:16.179Z,8.37
2022-09-25T17:17:37.313Z,8.21
2022-09-25T17:19:01.526Z,7.93
2022-09-25T17:20:22.646Z,7.69
2022-09-25T17:21:47.599Z,8.21
2022-09-25T17:23:09.433Z,10.38
2022-09-25T17:24:30.621Z,7.84
2022-09-25T17:26:02.944Z,8.59
2022-09-25T17:27:24.464Z,7.54
2022-09-25T17:28:45.928Z,7.68
2022-09-25T17:30:08.275Z,7.79
2022-09-25T17:31:29.965Z,7.91
2022-09-25T17:32:51.415Z,7.61
2022-09-25T17:34:18.358Z,7.51
2022-09-25T17:36:58.589Z,7.89
2022-09-25T17:38:20.903Z,7.19
2022-09-25T17:39:42.236Z,8.02
2022-09-25T17:41:12.923Z,8.56
2022-09-25T17:42:34.654Z,7.93
2022-09-25T17:43:56.095Z,8.44
2022-09-25T17:46:34.329Z,8.70
2022-09-25T17:47:55.831Z,10.79
2022-09-25T17:49:19.272Z,8.98
2022-09-25T17:52:02.142Z,6.92
2022-09-25T17:54:37.265Z,7.92
2022-09-25T17:55:59.241Z,7.22
2022-09-25T17:57:20.342Z,6.96
2022-09-25T17:58:41.745Z,8.46
2022-09-25T18:00:03.504Z,7.36
2022-09-25T18:01:28.066Z,7.98
2022-09-25T18:02:49.633Z,8.45
2022-09-25T18:04:21.993Z,7.88
2022-09-25T18:05:43.661Z,8.77
2022-09-25T18:07:06.298Z,7.08
2022-09-25T18:08:27.611Z,6.37
2022-09-25T18:09:48.957Z,6.39
2022-09-25T18:11:11.406Z,6.24
2022-09-25T18:12:32.791Z,5.51
2022-09-25T18:13:54.601Z,5.94
2022-09-25T18:15:15.735Z,5.65
2022-09-25T18:16:37.514Z,4.98
2022-09-25T18:17:58.962Z,4.44
2022-09-25T18:19:20.370Z,4.06
2022-09-25T18:20:42.017Z,3.74
2022-09-25T18:22:04.635Z,3.59
2022-09-25T18:23:26.267Z,3.33
2022-09-25T18:24:48.122Z,3.36
2022-09-25T18:26:11.125Z,3.97
2022-09-25T18:27:33.198Z,3.38
2022-09-25T18:28:54.699Z,3.02
2022-09-25T18:30:17.960Z,3.89
2022-09-25T18:32:59.969Z,3.95
2022-09-25T18:34:21.061Z,3.93
2022-09-25T18:35:42.433Z,3.92
2022-09-25T18:37:04.102Z,4.07
2022-09-25T18:38:25.289Z,3.96
2022-09-25T18:39:46.720Z,4.24
2022-09-25T18:41:08.123Z,4.35
2022-09-25T18:42:29.314Z,4.22
2022-09-25T18:43:50.767Z,4.13
2022-09-25T18:45:12.427Z,4.46
2022-09-25T18:46:34.671Z,4.39
2022-09-25T18:47:55.926Z,4.39
2022-09-25T18:49:17.038Z,4.53
2022-09-25T18:50:40.600Z,4.44
2022-09-25T18:52:01.851Z,4.93
2022-09-25T18:53:23.350Z,4.50
2022-09-25T18:54:45.510Z,5.14
2022-09-25T18:56:08.541Z,5.39
2022-09-25T18:57:29.857Z,5.13
2022-09-25T18:58:51.093Z,8.32
2022-09-25T19:00:13.320Z,6.67
2022-09-25T19:01:35.242Z,6.37
2022-09-25T19:02:56.499Z,6.88
2022-09-25T19:04:18.023Z,5.94
2022-09-25T19:05:39.311Z,6.45
2022-09-25T19:07:00.392Z,6.06
2022-09-25T19:08:21.430Z,6.09
2022-09-25T19:09:42.946Z,5.48
2022-09-25T19:12:18.708Z,5.18
2022-09-25T19:13:40.142Z,5.41
2022-09-25T19:15:01.434Z,5.36
2022-09-25T19:16:23.079Z,5.88
2022-09-25T19:17:44.438Z,5.66
2022-09-25T19:19:06.137Z,5.64
2022-09-25T19:20:27.744Z,5.85
2022-09-25T19:21:49.025Z,5.94
2022-09-25T19:23:10.723Z,6.17
2022-09-25T19:24:35.193Z,5.96
2022-09-25T19:25:59.736Z,6.41
2022-09-25T19:27:20.774Z,6.07
2022-09-25T19:28:42.953Z,5.67
2022-09-25T19:30:05.347Z,5.67
2022-09-25T19:31:27.279Z,5.53
2022-09-25T19:32:49.008Z,5.13
2022-09-25T19:35:25.840Z,4.59
2022-09-25T19:36:47.501Z,4.46
2022-09-25T19:38:12.586Z,4.47
2022-09-25T19:40:53.401Z,3.62
2022-09-25T19:42:14.811Z,4.06
2022-09-25T19:43:37.724Z,4.02
2022-09-25T19:44:59.998Z,3.71
2022-09-25T19:46:21.589Z,4.01
2022-09-25T19:47:43.331Z,3.97
2022-09-25T19:49:04.806Z,3.52
2022-09-25T19:50:26.244Z,3.71
2022-09-25T19:51:47.863Z,3.71
2022-09-25T19:53:09.226Z,3.69
2022-09-25T19:54:30.674Z,3.53
2022-09-25T19:55:52.630Z,3.78
2022-09-25T19:57:14.131Z,3.81
2022-09-25T19:58:35.753Z,4.28
2022-09-25T19:59:57.257Z,3.74
2022-09-25T20:01:23.821Z,3.82
2022-09-25T20:02:46.018Z,3.55
2022-09-25T20:04:08.577Z,3.82
2022-09-25T20:05:32.122Z,4.23
2022-09-25T20:06:53.191Z,4.33
2022-09-25T20:08:14.457Z,3.94
2022-09-25T20:09:39.732Z,4.07
2022-09-25T20:10:58.772Z,3.63
2022-09-25T20:12:20.404Z,4.03
2022-09-25T20:13:42.711Z,4.02
2022-09-25T20:15:04.721Z,4.17
2022-09-25T20:16:27.170Z,4.40
2022-09-25T20:17:48.875Z,3.97
2022-09-25T20:19:11.156Z,4.53
2022-09-25T20:20:34.806Z,9.37
2022-09-25T20:21:55.989Z,11.78
2022-09-25T20:23:17.230Z,9.92
2022-09-25T20:24:38.247Z,7.54
2022-09-25T20:27:23.535Z,4.40
2022-09-25T20:28:45.319Z,5.59
2022-09-25T20:30:07.988Z,5.42
2022-09-25T20:31:30.065Z,4.95
2022-09-25T20:32:51.236Z,5.46
2022-09-25T20:34:14.119Z,4.84
2022-09-25T20:35:38.343Z,5.14
2022-09-25T20:36:59.424Z,4.53
2022-09-25T20:38:21.336Z,4.31
2022-09-25T20:39:42.771Z,4.14
2022-09-25T20:42:18.317Z,4.17
2022-09-25T20:43:39.928Z,3.94
2022-09-25T20:45:01.354Z,3.78
2022-09-25T20:46:23.197Z,3.82
2022-09-25T20:47:46.356Z,3.85
2022-09-25T20:49:09.522Z,4.18
2022-09-25T20:51:51.534Z,3.20
2022-09-25T20:53:13.170Z,3.68
2022-09-25T20:54:35.010Z,3.80
2022-09-25T20:57:18.510Z,3.63
2022-09-25T20:58:41.159Z,3.33
2022-09-25T21:00:03.287Z,3.46
2022-09-25T21:01:27.259Z,3.44
2022-09-25T21:02:48.805Z,3.62
2022-09-25T21:04:10.195Z,3.47